sensor_id;sensor_type;location;lat;lon;timestamp;temperature;humidity
51839;DHT22;37886;53.174;6.368;2023-08-24T00:00:40;14.00;99.90
51839;DHT22;37886;53.174;6.368;2023-08-24T00:03:06;13.90;99.90
51839;DHT22;37886;53.174;6.368;2023-08-24T00:05:35;13.90;99.90
51839;DHT22;37886;53.174;6.368;2023-08-24T00:08:06;13.90;99.90
51839;DHT22;37886;53.174;6.368;2023-08-24T00:10:34;13.90;99.90
51839;DHT22;37886;53.174;6.368;2023-08-24T00:12:59;14.00;99.90
51839;DHT22;37886;53.174;6.368;2023-08-24T00:15:26;14.00;99.90
51839;DHT22;37886;53.174;6.368;2023-08-24T00:17:52;14.10;99.90
51839;DHT22;37886;53.174;6.368;2023-08-24T00:20:17;13.90;99.90
51839;DHT22;37886;53.174;6.368;2023-08-24T00:22:43;13.90;99.90
51839;DHT22;37886;53.174;6.368;2023-08-24T00:25:09;13.90;99.90
51839;DHT22;37886;53.174;6.368;2023-08-24T00:27:35;13.90;99.90
51839;DHT22;37886;53.174;6.368;2023-08-24T00:30:06;14.00;99.90
51839;DHT22;37886;53.174;6.368;2023-08-24T00:32:33;14.00;99.90
51839;DHT22;37886;53.174;6.368;2023-08-24T00:35:03;13.90;99.90
51839;DHT22;37886;53.174;6.368;2023-08-24T00:37:31;14.00;99.90
51839;DHT22;37886;53.174;6.368;2023-08-24T00:39:59;14.10;99.90
51839;DHT22;37886;53.174;6.368;2023-08-24T00:42:25;14.10;99.90
51839;DHT22;37886;53.174;6.368;2023-08-24T00:44:51;14.20;99.90
51839;DHT22;37886;53.174;6.368;2023-08-24T00:47:17;14.20;99.90
51839;DHT22;37886;53.174;6.368;2023-08-24T00:49:43;14.20;99.90
51839;DHT22;37886;53.174;6.368;2023-08-24T00:52:10;14.20;99.90
51839;DHT22;37886;53.174;6.368;2023-08-24T00:54:37;14.30;99.90
51839;DHT22;37886;53.174;6.368;2023-08-24T00:57:05;14.30;99.90
51839;DHT22;37886;53.174;6.368;2023-08-24T00:59:32;14.40;99.90
51839;DHT22;37886;53.174;6.368;2023-08-24T01:01:59;14.40;99.90
51839;DHT22;37886;53.174;6.368;2023-08-24T01:04:25;14.40;99.90
51839;DHT22;37886;53.174;6.368;2023-08-24T01:06:51;14.50;99.90
51839;DHT22;37886;53.174;6.368;2023-08-24T01:09:18;14.50;99.90
51839;DHT22;37886;53.174;6.368;2023-08-24T01:12:05;14.50;99.90
51839;DHT22;37886;53.174;6.368;2023-08-24T01:14:56;14.50;99.90
51839;DHT22;37886;53.174;6.368;2023-08-24T01:17:26;14.50;99.90
51839;DHT22;37886;53.174;6.368;2023-08-24T01:19:55;14.60;99.90
51839;DHT22;37886;53.174;6.368;2023-08-24T01:27:39;14.60;99.90
51839;DHT22;37886;53.174;6.368;2023-08-24T01:30:06;14.60;99.90
51839;DHT22;37886;53.174;6.368;2023-08-24T01:32:34;14.60;99.90
51839;DHT22;37886;53.174;6.368;2023-08-24T01:35:02;14.60;99.90
51839;DHT22;37886;53.174;6.368;2023-08-24T01:37:28;14.60;99.90
51839;DHT22;37886;53.174;6.368;2023-08-24T01:40:15;14.60;99.90
51839;DHT22;37886;53.174;6.368;2023-08-24T01:42:55;14.70;99.90
51839;DHT22;37886;53.174;6.368;2023-08-24T01:45:24;14.70;99.90
51839;DHT22;37886;53.174;6.368;2023-08-24T01:47:54;14.70;99.90
51839;DHT22;37886;53.174;6.368;2023-08-24T01:50:20;14.70;99.90
51839;DHT22;37886;53.174;6.368;2023-08-24T01:52:46;14.80;99.90
51839;DHT22;37886;53.174;6.368;2023-08-24T01:55:12;14.80;99.90
51839;DHT22;37886;53.174;6.368;2023-08-24T01:57:38;14.80;99.90
51839;DHT22;37886;53.174;6.368;2023-08-24T02:00:05;14.80;99.90
51839;DHT22;37886;53.174;6.368;2023-08-24T02:02:35;14.80;99.90
51839;DHT22;37886;53.174;6.368;2023-08-24T02:05:01;14.90;99.90
51839;DHT22;37886;53.174;6.368;2023-08-24T02:07:27;14.90;99.90
51839;DHT22;37886;53.174;6.368;2023-08-24T02:09:52;14.90;99.90
51839;DHT22;37886;53.174;6.368;2023-08-24T02:12:18;15.00;99.90
51839;DHT22;37886;53.174;6.368;2023-08-24T02:14:44;15.00;99.90
51839;DHT22;37886;53.174;6.368;2023-08-24T02:17:09;15.00;99.90
51839;DHT22;37886;53.174;6.368;2023-08-24T02:19:35;15.00;99.90
51839;DHT22;37886;53.174;6.368;2023-08-24T02:22:01;15.00;99.90
51839;DHT22;37886;53.174;6.368;2023-08-24T02:24:26;14.90;99.90
51839;DHT22;37886;53.174;6.368;2023-08-24T02:26:52;15.00;99.90
51839;DHT22;37886;53.174;6.368;2023-08-24T02:29:18;15.00;99.90
51839;DHT22;37886;53.174;6.368;2023-08-24T02:31:44;15.00;99.90
51839;DHT22;37886;53.174;6.368;2023-08-24T02:34:09;15.10;99.90
51839;DHT22;37886;53.174;6.368;2023-08-24T02:36:35;15.20;99.90
51839;DHT22;37886;53.174;6.368;2023-08-24T02:39:01;15.10;99.90
51839;DHT22;37886;53.174;6.368;2023-08-24T02:41:26;15.20;99.90
51839;DHT22;37886;53.174;6.368;2023-08-24T02:43:53;15.20;99.90
51839;DHT22;37886;53.174;6.368;2023-08-24T02:46:20;15.20;99.90
51839;DHT22;37886;53.174;6.368;2023-08-24T02:48:46;15.20;99.90
51839;DHT22;37886;53.174;6.368;2023-08-24T02:51:12;15.20;99.90
51839;DHT22;37886;53.174;6.368;2023-08-24T02:53:38;15.30;99.90
51839;DHT22;37886;53.174;6.368;2023-08-24T02:56:04;15.30;99.90
51839;DHT22;37886;53.174;6.368;2023-08-24T02:58:30;15.20;99.90
51839;DHT22;37886;53.174;6.368;2023-08-24T03:00:56;15.30;99.90
51839;DHT22;37886;53.174;6.368;2023-08-24T03:03:22;15.30;99.90
51839;DHT22;37886;53.174;6.368;2023-08-24T03:05:55;15.30;99.90
51839;DHT22;37886;53.174;6.368;2023-08-24T03:08:21;15.30;99.90
51839;DHT22;37886;53.174;6.368;2023-08-24T03:10:47;15.30;99.90
51839;DHT22;37886;53.174;6.368;2023-08-24T03:13:13;15.30;99.90
51839;DHT22;37886;53.174;6.368;2023-08-24T03:15:39;15.20;99.90
51839;DHT22;37886;53.174;6.368;2023-08-24T03:18:05;15.20;99.90
51839;DHT22;37886;53.174;6.368;2023-08-24T03:20:31;15.10;99.90
51839;DHT22;37886;53.174;6.368;2023-08-24T03:22:56;15.10;99.90
51839;DHT22;37886;53.174;6.368;2023-08-24T03:25:23;15.10;99.90
51839;DHT22;37886;53.174;6.368;2023-08-24T03:27:49;15.10;99.90
51839;DHT22;37886;53.174;6.368;2023-08-24T03:30:15;15.10;99.90
51839;DHT22;37886;53.174;6.368;2023-08-24T03:32:41;15.00;99.90
51839;DHT22;37886;53.174;6.368;2023-08-24T03:35:07;15.00;99.90
51839;DHT22;37886;53.174;6.368;2023-08-24T03:37:33;15.00;99.90
51839;DHT22;37886;53.174;6.368;2023-08-24T03:39:59;15.10;99.90
51839;DHT22;37886;53.174;6.368;2023-08-24T03:42:25;15.10;99.90
51839;DHT22;37886;53.174;6.368;2023-08-24T03:44:50;15.10;99.90
51839;DHT22;37886;53.174;6.368;2023-08-24T03:47:16;15.20;99.90
51839;DHT22;37886;53.174;6.368;2023-08-24T03:49:45;15.10;99.90
51839;DHT22;37886;53.174;6.368;2023-08-24T03:52:10;15.20;99.90
51839;DHT22;37886;53.174;6.368;2023-08-24T03:54:36;15.20;99.90
51839;DHT22;37886;53.174;6.368;2023-08-24T03:57:02;15.20;99.90
51839;DHT22;37886;53.174;6.368;2023-08-24T03:59:28;15.20;99.90
51839;DHT22;37886;53.174;6.368;2023-08-24T04:01:53;15.20;99.90
51839;DHT22;37886;53.174;6.368;2023-08-24T04:04:20;15.20;99.90
51839;DHT22;37886;53.174;6.368;2023-08-24T04:06:45;15.20;99.90
51839;DHT22;37886;53.174;6.368;2023-08-24T04:09:11;15.20;99.90
51839;DHT22;37886;53.174;6.368;2023-08-24T04:11:37;15.20;99.90
51839;DHT22;37886;53.174;6.368;2023-08-24T04:14:02;15.20;99.90
51839;DHT22;37886;53.174;6.368;2023-08-24T04:16:28;15.30;99.90
51839;DHT22;37886;53.174;6.368;2023-08-24T04:18:53;15.30;99.90
51839;DHT22;37886;53.174;6.368;2023-08-24T04:21:19;15.30;99.90
51839;DHT22;37886;53.174;6.368;2023-08-24T04:23:45;15.40;99.90
51839;DHT22;37886;53.174;6.368;2023-08-24T04:26:14;15.40;99.90
51839;DHT22;37886;53.174;6.368;2023-08-24T04:28:39;15.40;99.90
51839;DHT22;37886;53.174;6.368;2023-08-24T04:31:05;15.40;99.90
51839;DHT22;37886;53.174;6.368;2023-08-24T04:33:31;15.40;99.90
51839;DHT22;37886;53.174;6.368;2023-08-24T04:35:57;15.30;99.90
51839;DHT22;37886;53.174;6.368;2023-08-24T04:38:23;15.30;99.90
51839;DHT22;37886;53.174;6.368;2023-08-24T04:40:54;15.30;99.90
51839;DHT22;37886;53.174;6.368;2023-08-24T04:43:20;15.30;99.90
51839;DHT22;37886;53.174;6.368;2023-08-24T04:45:50;15.20;99.90
51839;DHT22;37886;53.174;6.368;2023-08-24T04:48:18;15.20;99.90
51839;DHT22;37886;53.174;6.368;2023-08-24T04:50:45;15.10;99.90
51839;DHT22;37886;53.174;6.368;2023-08-24T04:53:13;15.10;99.90
51839;DHT22;37886;53.174;6.368;2023-08-24T04:55:40;15.10;99.90
51839;DHT22;37886;53.174;6.368;2023-08-24T04:58:10;15.10;99.90
51839;DHT22;37886;53.174;6.368;2023-08-24T05:00:36;15.10;99.90
51839;DHT22;37886;53.174;6.368;2023-08-24T05:03:04;15.10;99.90
51839;DHT22;37886;53.174;6.368;2023-08-24T05:05:31;15.10;99.90
51839;DHT22;37886;53.174;6.368;2023-08-24T05:07:57;15.10;99.90
51839;DHT22;37886;53.174;6.368;2023-08-24T05:10:24;15.10;99.90
51839;DHT22;37886;53.174;6.368;2023-08-24T05:12:49;15.20;99.90
51839;DHT22;37886;53.174;6.368;2023-08-24T05:15:15;15.20;99.90
51839;DHT22;37886;53.174;6.368;2023-08-24T05:17:41;15.20;99.90
51839;DHT22;37886;53.174;6.368;2023-08-24T05:20:07;15.10;99.90
51839;DHT22;37886;53.174;6.368;2023-08-24T05:22:34;15.20;99.90
51839;DHT22;37886;53.174;6.368;2023-08-24T05:25:00;15.10;99.90
51839;DHT22;37886;53.174;6.368;2023-08-24T05:27:26;15.20;99.90
51839;DHT22;37886;53.174;6.368;2023-08-24T05:29:51;15.10;99.90
51839;DHT22;37886;53.174;6.368;2023-08-24T05:32:17;15.10;99.90
51839;DHT22;37886;53.174;6.368;2023-08-24T05:34:43;15.20;99.90
51839;DHT22;37886;53.174;6.368;2023-08-24T05:37:08;15.20;99.90
51839;DHT22;37886;53.174;6.368;2023-08-24T05:39:34;15.20;99.90
51839;DHT22;37886;53.174;6.368;2023-08-24T05:41:59;15.30;99.90
51839;DHT22;37886;53.174;6.368;2023-08-24T05:44:25;15.40;99.90
51839;DHT22;37886;53.174;6.368;2023-08-24T05:46:51;15.40;99.90
51839;DHT22;37886;53.174;6.368;2023-08-24T05:49:16;15.50;99.90
51839;DHT22;37886;53.174;6.368;2023-08-24T05:51:42;15.60;99.90
51839;DHT22;37886;53.174;6.368;2023-08-24T05:54:08;15.60;99.90
51839;DHT22;37886;53.174;6.368;2023-08-24T05:56:33;15.70;99.90
51839;DHT22;37886;53.174;6.368;2023-08-24T05:58:59;15.80;99.90
51839;DHT22;37886;53.174;6.368;2023-08-24T06:01:25;15.80;99.90
51839;DHT22;37886;53.174;6.368;2023-08-24T06:03:51;15.90;99.90
51839;DHT22;37886;53.174;6.368;2023-08-24T06:06:16;16.00;99.90
51839;DHT22;37886;53.174;6.368;2023-08-24T06:08:42;16.10;99.90
51839;DHT22;37886;53.174;6.368;2023-08-24T06:11:08;16.30;99.90
51839;DHT22;37886;53.174;6.368;2023-08-24T06:13:34;16.30;99.90
51839;DHT22;37886;53.174;6.368;2023-08-24T06:16:00;16.50;99.90
51839;DHT22;37886;53.174;6.368;2023-08-24T06:18:27;16.50;99.90
51839;DHT22;37886;53.174;6.368;2023-08-24T06:20:53;16.60;99.90
51839;DHT22;37886;53.174;6.368;2023-08-24T06:23:20;16.70;99.90
51839;DHT22;37886;53.174;6.368;2023-08-24T06:25:46;16.80;99.90
51839;DHT22;37886;53.174;6.368;2023-08-24T06:28:12;16.90;99.90
51839;DHT22;37886;53.174;6.368;2023-08-24T06:30:39;16.90;99.90
51839;DHT22;37886;53.174;6.368;2023-08-24T06:33:06;16.90;99.90
51839;DHT22;37886;53.174;6.368;2023-08-24T06:35:35;17.00;99.90
51839;DHT22;37886;53.174;6.368;2023-08-24T06:38:02;17.00;99.90
51839;DHT22;37886;53.174;6.368;2023-08-24T06:40:28;17.10;99.90
51839;DHT22;37886;53.174;6.368;2023-08-24T06:42:54;17.10;99.90
51839;DHT22;37886;53.174;6.368;2023-08-24T06:45:20;17.20;99.90
51839;DHT22;37886;53.174;6.368;2023-08-24T06:47:45;17.30;99.90
51839;DHT22;37886;53.174;6.368;2023-08-24T06:50:11;17.40;99.90
51839;DHT22;37886;53.174;6.368;2023-08-24T06:52:37;17.40;99.90
51839;DHT22;37886;53.174;6.368;2023-08-24T06:55:04;17.50;99.90
51839;DHT22;37886;53.174;6.368;2023-08-24T06:57:30;17.50;99.90
51839;DHT22;37886;53.174;6.368;2023-08-24T06:59:56;17.60;99.90
51839;DHT22;37886;53.174;6.368;2023-08-24T07:02:21;17.70;99.90
51839;DHT22;37886;53.174;6.368;2023-08-24T07:04:48;17.80;99.90
51839;DHT22;37886;53.174;6.368;2023-08-24T07:07:14;17.80;99.90
51839;DHT22;37886;53.174;6.368;2023-08-24T07:09:39;17.90;99.90
51839;DHT22;37886;53.174;6.368;2023-08-24T07:12:05;18.00;99.90
51839;DHT22;37886;53.174;6.368;2023-08-24T07:14:33;18.00;99.90
51839;DHT22;37886;53.174;6.368;2023-08-24T07:16:59;18.10;99.90
51839;DHT22;37886;53.174;6.368;2023-08-24T07:19:24;18.30;99.90
51839;DHT22;37886;53.174;6.368;2023-08-24T07:21:50;18.30;99.90
51839;DHT22;37886;53.174;6.368;2023-08-24T07:24:16;18.40;99.90
51839;DHT22;37886;53.174;6.368;2023-08-24T07:26:44;18.40;99.90
51839;DHT22;37886;53.174;6.368;2023-08-24T07:29:11;18.50;99.90
51839;DHT22;37886;53.174;6.368;2023-08-24T07:31:36;18.60;99.90
51839;DHT22;37886;53.174;6.368;2023-08-24T07:34:02;18.70;99.90
51839;DHT22;37886;53.174;6.368;2023-08-24T07:36:29;18.90;99.90
51839;DHT22;37886;53.174;6.368;2023-08-24T07:38:55;18.90;99.90
51839;DHT22;37886;53.174;6.368;2023-08-24T07:41:21;19.00;99.90
51839;DHT22;37886;53.174;6.368;2023-08-24T07:43:47;19.10;99.90
51839;DHT22;37886;53.174;6.368;2023-08-24T07:46:13;19.20;99.90
51839;DHT22;37886;53.174;6.368;2023-08-24T07:48:38;19.30;99.90
51839;DHT22;37886;53.174;6.368;2023-08-24T07:51:04;19.50;99.90
51839;DHT22;37886;53.174;6.368;2023-08-24T07:53:30;19.50;99.90
51839;DHT22;37886;53.174;6.368;2023-08-24T07:55:58;19.50;99.90
51839;DHT22;37886;53.174;6.368;2023-08-24T07:58:24;19.60;99.90
51839;DHT22;37886;53.174;6.368;2023-08-24T08:00:50;19.90;99.90
51839;DHT22;37886;53.174;6.368;2023-08-24T08:03:20;20.00;99.90
51839;DHT22;37886;53.174;6.368;2023-08-24T08:05:46;20.20;99.90
51839;DHT22;37886;53.174;6.368;2023-08-24T08:08:16;20.30;99.90
51839;DHT22;37886;53.174;6.368;2023-08-24T08:10:42;20.40;99.90
51839;DHT22;37886;53.174;6.368;2023-08-24T08:13:08;20.50;99.90
51839;DHT22;37886;53.174;6.368;2023-08-24T08:15:36;20.50;99.90
51839;DHT22;37886;53.174;6.368;2023-08-24T08:18:04;20.50;99.90
51839;DHT22;37886;53.174;6.368;2023-08-24T08:20:30;20.50;99.90
51839;DHT22;37886;53.174;6.368;2023-08-24T08:22:56;20.60;99.90
51839;DHT22;37886;53.174;6.368;2023-08-24T08:25:22;20.80;99.90
51839;DHT22;37886;53.174;6.368;2023-08-24T08:27:49;20.80;99.90
51839;DHT22;37886;53.174;6.368;2023-08-24T08:30:15;20.90;99.90
51839;DHT22;37886;53.174;6.368;2023-08-24T08:32:45;21.00;99.90
51839;DHT22;37886;53.174;6.368;2023-08-24T08:35:11;21.10;99.90
51839;DHT22;37886;53.174;6.368;2023-08-24T08:37:36;21.20;99.90
51839;DHT22;37886;53.174;6.368;2023-08-24T08:40:04;21.30;99.90
51839;DHT22;37886;53.174;6.368;2023-08-24T08:42:34;21.40;99.90
51839;DHT22;37886;53.174;6.368;2023-08-24T08:45:03;21.40;99.90
51839;DHT22;37886;53.174;6.368;2023-08-24T08:47:29;21.50;99.90
51839;DHT22;37886;53.174;6.368;2023-08-24T08:49:55;21.60;99.90
51839;DHT22;37886;53.174;6.368;2023-08-24T08:52:22;21.90;99.90
51839;DHT22;37886;53.174;6.368;2023-08-24T08:54:47;22.20;99.90
51839;DHT22;37886;53.174;6.368;2023-08-24T08:57:14;22.20;99.90
51839;DHT22;37886;53.174;6.368;2023-08-24T08:59:41;22.20;99.90
51839;DHT22;37886;53.174;6.368;2023-08-24T09:02:12;22.20;99.90
51839;DHT22;37886;53.174;6.368;2023-08-24T09:04:38;22.10;99.90
51839;DHT22;37886;53.174;6.368;2023-08-24T09:07:05;22.00;99.90
51839;DHT22;37886;53.174;6.368;2023-08-24T09:09:36;22.10;99.90
51839;DHT22;37886;53.174;6.368;2023-08-24T09:12:04;22.10;99.90
51839;DHT22;37886;53.174;6.368;2023-08-24T09:14:30;22.10;99.90
51839;DHT22;37886;53.174;6.368;2023-08-24T09:16:56;22.30;99.90
51839;DHT22;37886;53.174;6.368;2023-08-24T09:19:28;22.50;99.90
51839;DHT22;37886;53.174;6.368;2023-08-24T09:21:57;22.70;99.90
51839;DHT22;37886;53.174;6.368;2023-08-24T09:24:33;22.90;99.90
51839;DHT22;37886;53.174;6.368;2023-08-24T09:26:59;23.10;99.90
51839;DHT22;37886;53.174;6.368;2023-08-24T09:29:26;23.30;99.90
51839;DHT22;37886;53.174;6.368;2023-08-24T09:31:51;23.30;99.90
51839;DHT22;37886;53.174;6.368;2023-08-24T09:34:20;23.40;99.90
51839;DHT22;37886;53.174;6.368;2023-08-24T09:36:47;23.40;99.90
51839;DHT22;37886;53.174;6.368;2023-08-24T09:39:16;23.40;99.90
51839;DHT22;37886;53.174;6.368;2023-08-24T09:41:48;23.30;99.90
51839;DHT22;37886;53.174;6.368;2023-08-24T09:44:14;23.30;99.90
51839;DHT22;37886;53.174;6.368;2023-08-24T09:46:40;23.30;99.90
51839;DHT22;37886;53.174;6.368;2023-08-24T09:49:10;23.20;99.90
51839;DHT22;37886;53.174;6.368;2023-08-24T09:51:38;23.20;99.90
51839;DHT22;37886;53.174;6.368;2023-08-24T09:54:05;23.10;99.90
51839;DHT22;37886;53.174;6.368;2023-08-24T09:56:35;23.20;99.90
51839;DHT22;37886;53.174;6.368;2023-08-24T09:59:05;23.20;99.90
51839;DHT22;37886;53.174;6.368;2023-08-24T10:01:32;23.10;99.90
51839;DHT22;37886;53.174;6.368;2023-08-24T10:03:59;23.10;99.90
51839;DHT22;37886;53.174;6.368;2023-08-24T10:06:27;23.10;99.90
51839;DHT22;37886;53.174;6.368;2023-08-24T10:08:58;23.00;99.90
51839;DHT22;37886;53.174;6.368;2023-08-24T10:11:28;22.90;99.90
51839;DHT22;37886;53.174;6.368;2023-08-24T10:16:50;22.90;99.90
51839;DHT22;37886;53.174;6.368;2023-08-24T10:19:17;22.70;99.90
51839;DHT22;37886;53.174;6.368;2023-08-24T10:21:43;22.60;99.90
51839;DHT22;37886;53.174;6.368;2023-08-24T10:24:09;22.50;99.90
51839;DHT22;37886;53.174;6.368;2023-08-24T10:26:37;22.50;99.90
51839;DHT22;37886;53.174;6.368;2023-08-24T10:29:06;22.40;99.90
51839;DHT22;37886;53.174;6.368;2023-08-24T10:31:32;22.30;99.90
51839;DHT22;37886;53.174;6.368;2023-08-24T10:33:59;22.20;99.90
51839;DHT22;37886;53.174;6.368;2023-08-24T10:36:26;22.20;99.90
51839;DHT22;37886;53.174;6.368;2023-08-24T10:38:55;22.10;99.90
51839;DHT22;37886;53.174;6.368;2023-08-24T10:41:26;22.10;99.90
51839;DHT22;37886;53.174;6.368;2023-08-24T10:43:52;22.00;99.90
51839;DHT22;37886;53.174;6.368;2023-08-24T10:46:34;21.90;99.90
51839;DHT22;37886;53.174;6.368;2023-08-24T10:49:04;21.90;99.90
51839;DHT22;37886;53.174;6.368;2023-08-24T10:51:30;21.90;99.90
51839;DHT22;37886;53.174;6.368;2023-08-24T10:53:58;21.90;99.90
51839;DHT22;37886;53.174;6.368;2023-08-24T10:56:37;21.90;99.90
51839;DHT22;37886;53.174;6.368;2023-08-24T10:59:11;21.90;99.90
51839;DHT22;37886;53.174;6.368;2023-08-24T11:01:39;21.90;99.90
51839;DHT22;37886;53.174;6.368;2023-08-24T11:04:06;21.90;99.90
51839;DHT22;37886;53.174;6.368;2023-08-24T11:06:35;22.00;99.90
51839;DHT22;37886;53.174;6.368;2023-08-24T11:09:15;21.90;99.90
51839;DHT22;37886;53.174;6.368;2023-08-24T11:11:42;21.90;99.90
51839;DHT22;37886;53.174;6.368;2023-08-24T11:14:20;21.90;99.90
51839;DHT22;37886;53.174;6.368;2023-08-24T11:16:51;21.80;99.90
51839;DHT22;37886;53.174;6.368;2023-08-24T11:19:17;21.80;99.90
51839;DHT22;37886;53.174;6.368;2023-08-24T11:21:44;21.80;99.90
51839;DHT22;37886;53.174;6.368;2023-08-24T11:24:12;21.80;99.90
51839;DHT22;37886;53.174;6.368;2023-08-24T11:26:43;21.80;99.90
51839;DHT22;37886;53.174;6.368;2023-08-24T11:29:09;21.90;99.90
51839;DHT22;37886;53.174;6.368;2023-08-24T11:31:36;21.90;99.90
51839;DHT22;37886;53.174;6.368;2023-08-24T11:34:02;21.90;99.90
51839;DHT22;37886;53.174;6.368;2023-08-24T11:36:30;22.10;99.90
51839;DHT22;37886;53.174;6.368;2023-08-24T11:38:59;22.10;99.90
51839;DHT22;37886;53.174;6.368;2023-08-24T11:41:26;22.30;99.90
51839;DHT22;37886;53.174;6.368;2023-08-24T11:43:59;22.50;99.90
51839;DHT22;37886;53.174;6.368;2023-08-24T11:46:28;22.60;99.90
51839;DHT22;37886;53.174;6.368;2023-08-24T11:48:54;22.80;99.90
51839;DHT22;37886;53.174;6.368;2023-08-24T11:51:20;22.90;99.90
51839;DHT22;37886;53.174;6.368;2023-08-24T11:53:46;23.00;99.90
51839;DHT22;37886;53.174;6.368;2023-08-24T11:56:13;23.10;99.90
51839;DHT22;37886;53.174;6.368;2023-08-24T11:58:47;23.10;99.90
51839;DHT22;37886;53.174;6.368;2023-08-24T12:01:13;22.80;99.90
51839;DHT22;37886;53.174;6.368;2023-08-24T12:03:40;22.80;99.90
51839;DHT22;37886;53.174;6.368;2023-08-24T12:06:13;22.90;99.90
51839;DHT22;37886;53.174;6.368;2023-08-24T12:08:41;22.80;99.90
51839;DHT22;37886;53.174;6.368;2023-08-24T12:11:16;22.80;99.90
51839;DHT22;37886;53.174;6.368;2023-08-24T12:13:46;22.90;99.90
51839;DHT22;37886;53.174;6.368;2023-08-24T12:16:13;22.90;99.90
51839;DHT22;37886;53.174;6.368;2023-08-24T12:18:53;22.90;99.90
51839;DHT22;37886;53.174;6.368;2023-08-24T12:21:20;22.90;99.90
51839;DHT22;37886;53.174;6.368;2023-08-24T12:24:04;22.90;99.90
51839;DHT22;37886;53.174;6.368;2023-08-24T12:26:35;22.80;99.90
51839;DHT22;37886;53.174;6.368;2023-08-24T12:29:05;22.70;99.90
51839;DHT22;37886;53.174;6.368;2023-08-24T12:31:32;22.80;99.90
51839;DHT22;37886;53.174;6.368;2023-08-24T12:34:03;22.90;99.90
51839;DHT22;37886;53.174;6.368;2023-08-24T12:36:29;23.00;99.90
51839;DHT22;37886;53.174;6.368;2023-08-24T12:38:55;23.20;99.90
51839;DHT22;37886;53.174;6.368;2023-08-24T12:41:22;23.40;99.90
51839;DHT22;37886;53.174;6.368;2023-08-24T12:43:47;23.60;99.90
51839;DHT22;37886;53.174;6.368;2023-08-24T12:46:13;23.80;99.90
51839;DHT22;37886;53.174;6.368;2023-08-24T12:48:39;23.70;99.90
51839;DHT22;37886;53.174;6.368;2023-08-24T12:51:05;23.60;99.90
51839;DHT22;37886;53.174;6.368;2023-08-24T12:53:30;23.40;99.90
51839;DHT22;37886;53.174;6.368;2023-08-24T12:55:56;23.60;99.90
51839;DHT22;37886;53.174;6.368;2023-08-24T12:58:22;23.50;99.90
51839;DHT22;37886;53.174;6.368;2023-08-24T13:00:47;23.30;99.90
51839;DHT22;37886;53.174;6.368;2023-08-24T13:03:14;23.30;99.90
51839;DHT22;37886;53.174;6.368;2023-08-24T13:05:40;23.40;99.90
51839;DHT22;37886;53.174;6.368;2023-08-24T13:08:05;23.10;99.90
51839;DHT22;37886;53.174;6.368;2023-08-24T13:10:31;23.10;99.90
51839;DHT22;37886;53.174;6.368;2023-08-24T13:12:58;23.00;99.90
51839;DHT22;37886;53.174;6.368;2023-08-24T13:15:23;23.10;99.90
51839;DHT22;37886;53.174;6.368;2023-08-24T13:17:49;23.00;99.90
51839;DHT22;37886;53.174;6.368;2023-08-24T13:20:15;23.10;99.90
51839;DHT22;37886;53.174;6.368;2023-08-24T13:22:41;23.00;99.90
51839;DHT22;37886;53.174;6.368;2023-08-24T13:25:07;23.00;99.90
51839;DHT22;37886;53.174;6.368;2023-08-24T13:27:33;23.10;99.90
51839;DHT22;37886;53.174;6.368;2023-08-24T13:30:02;23.20;99.90
51839;DHT22;37886;53.174;6.368;2023-08-24T13:32:28;23.20;99.90
51839;DHT22;37886;53.174;6.368;2023-08-24T13:34:54;23.30;99.90
51839;DHT22;37886;53.174;6.368;2023-08-24T13:37:21;23.50;99.90
51839;DHT22;37886;53.174;6.368;2023-08-24T13:39:47;23.50;99.90
51839;DHT22;37886;53.174;6.368;2023-08-24T13:42:13;23.50;99.90
51839;DHT22;37886;53.174;6.368;2023-08-24T13:44:39;23.10;99.90
51839;DHT22;37886;53.174;6.368;2023-08-24T13:47:04;22.90;99.90
51839;DHT22;37886;53.174;6.368;2023-08-24T13:49:30;23.10;99.90
51839;DHT22;37886;53.174;6.368;2023-08-24T13:51:56;23.00;99.90
51839;DHT22;37886;53.174;6.368;2023-08-24T13:54:21;23.00;99.90
51839;DHT22;37886;53.174;6.368;2023-08-24T13:56:48;23.10;99.90
51839;DHT22;37886;53.174;6.368;2023-08-24T13:59:15;23.20;99.90
51839;DHT22;37886;53.174;6.368;2023-08-24T14:01:41;23.40;99.90
51839;DHT22;37886;53.174;6.368;2023-08-24T14:04:08;23.40;99.90
51839;DHT22;37886;53.174;6.368;2023-08-24T14:06:34;23.50;99.90
51839;DHT22;37886;53.174;6.368;2023-08-24T14:09:00;23.50;99.90
51839;DHT22;37886;53.174;6.368;2023-08-24T14:11:27;23.60;99.90
51839;DHT22;37886;53.174;6.368;2023-08-24T14:13:53;23.70;99.90
51839;DHT22;37886;53.174;6.368;2023-08-24T14:16:19;23.80;99.90
51839;DHT22;37886;53.174;6.368;2023-08-24T14:18:45;23.70;99.90
51839;DHT22;37886;53.174;6.368;2023-08-24T14:21:11;23.70;99.90
51839;DHT22;37886;53.174;6.368;2023-08-24T14:23:37;23.60;99.90
51839;DHT22;37886;53.174;6.368;2023-08-24T14:26:03;23.40;99.90
51839;DHT22;37886;53.174;6.368;2023-08-24T14:31:16;23.20;99.90
51839;DHT22;37886;53.174;6.368;2023-08-24T14:33:42;23.20;99.90
51839;DHT22;37886;53.174;6.368;2023-08-24T14:36:09;23.10;99.90
51839;DHT22;37886;53.174;6.368;2023-08-24T14:38:38;23.10;99.90
51839;DHT22;37886;53.174;6.368;2023-08-24T14:41:04;23.10;99.90
51839;DHT22;37886;53.174;6.368;2023-08-24T14:43:29;23.10;99.90
51839;DHT22;37886;53.174;6.368;2023-08-24T14:45:55;23.10;99.90
51839;DHT22;37886;53.174;6.368;2023-08-24T14:48:20;23.10;99.90
51839;DHT22;37886;53.174;6.368;2023-08-24T14:50:46;23.20;99.90
51839;DHT22;37886;53.174;6.368;2023-08-24T14:53:12;23.20;99.90
51839;DHT22;37886;53.174;6.368;2023-08-24T14:55:41;23.20;99.90
51839;DHT22;37886;53.174;6.368;2023-08-24T14:58:07;23.20;99.90
51839;DHT22;37886;53.174;6.368;2023-08-24T15:00:33;23.20;99.90
51839;DHT22;37886;53.174;6.368;2023-08-24T15:02:59;23.10;99.90
51839;DHT22;37886;53.174;6.368;2023-08-24T15:05:25;23.10;99.90
51839;DHT22;37886;53.174;6.368;2023-08-24T15:07:51;23.10;99.90
51839;DHT22;37886;53.174;6.368;2023-08-24T15:10:17;23.20;99.90
51839;DHT22;37886;53.174;6.368;2023-08-24T15:12:44;23.20;99.90
51839;DHT22;37886;53.174;6.368;2023-08-24T15:15:10;23.30;99.90
51839;DHT22;37886;53.174;6.368;2023-08-24T15:17:36;23.50;99.90
51839;DHT22;37886;53.174;6.368;2023-08-24T15:20:02;23.60;99.90
51839;DHT22;37886;53.174;6.368;2023-08-24T15:22:31;23.60;99.90
51839;DHT22;37886;53.174;6.368;2023-08-24T15:24:57;23.60;99.90
51839;DHT22;37886;53.174;6.368;2023-08-24T15:27:24;23.60;99.90
51839;DHT22;37886;53.174;6.368;2023-08-24T15:29:50;23.60;99.90
51839;DHT22;37886;53.174;6.368;2023-08-24T15:32:18;23.60;99.90
51839;DHT22;37886;53.174;6.368;2023-08-24T15:34:44;23.60;99.90
51839;DHT22;37886;53.174;6.368;2023-08-24T15:37:10;23.50;99.90
51839;DHT22;37886;53.174;6.368;2023-08-24T15:39:37;23.60;99.90